sensor_id;sensor_type;location;lat;lon;timestamp;P1;durP1;ratioP1;P2;durP2;ratioP2
18286;SDS011;9269;50.838;12.094;2023-08-17T00:00:04;9.37;;;8.57;;
18286;SDS011;9269;50.838;12.094;2023-08-17T00:02:37;8.87;;;8.17;;
18286;SDS011;9269;50.838;12.094;2023-08-17T00:05:07;8.60;;;7.83;;
18286;SDS011;9269;50.838;12.094;2023-08-17T00:07:36;10.70;;;9.67;;
18286;SDS011;9269;50.838;12.094;2023-08-17T00:10:05;9.57;;;8.57;;
18286;SDS011;9269;50.838;12.094;2023-08-17T00:12:34;8.63;;;7.83;;
18286;SDS011;9269;50.838;12.094;2023-08-17T00:15:03;9.00;;;8.27;;
18286;SDS011;9269;50.838;12.094;2023-08-17T00:17:32;9.27;;;8.43;;
18286;SDS011;9269;50.838;12.094;2023-08-17T00:20:02;9.97;;;8.90;;
18286;SDS011;9269;50.838;12.094;2023-08-17T00:22:34;10.37;;;9.37;;
18286;SDS011;9269;50.838;12.094;2023-08-17T00:25:03;9.83;;;9.03;;
18286;SDS011;9269;50.838;12.094;2023-08-17T00:27:32;9.77;;;9.03;;
18286;SDS011;9269;50.838;12.094;2023-08-17T00:30:01;8.77;;;8.07;;
18286;SDS011;9269;50.838;12.094;2023-08-17T00:32:30;9.00;;;8.30;;
18286;SDS011;9269;50.838;12.094;2023-08-17T00:34:58;8.97;;;8.07;;
18286;SDS011;9269;50.838;12.094;2023-08-17T00:37:28;9.03;;;8.20;;
18286;SDS011;9269;50.838;12.094;2023-08-17T00:39:57;9.70;;;9.00;;
18286;SDS011;9269;50.838;12.094;2023-08-17T00:42:26;10.40;;;9.53;;
18286;SDS011;9269;50.838;12.094;2023-08-17T00:44:55;9.10;;;8.40;;
18286;SDS011;9269;50.838;12.094;2023-08-17T00:47:23;10.70;;;9.73;;
18286;SDS011;9269;50.838;12.094;2023-08-17T00:49:53;8.97;;;8.27;;
18286;SDS011;9269;50.838;12.094;2023-08-17T00:52:22;10.10;;;9.20;;
18286;SDS011;9269;50.838;12.094;2023-08-17T00:54:53;9.73;;;8.93;;
18286;SDS011;9269;50.838;12.094;2023-08-17T00:57:23;11.63;;;10.00;;
18286;SDS011;9269;50.838;12.094;2023-08-17T00:59:52;10.47;;;9.50;;
18286;SDS011;9269;50.838;12.094;2023-08-17T01:02:32;9.63;;;8.83;;
18286;SDS011;9269;50.838;12.094;2023-08-17T01:05:02;9.53;;;8.73;;
18286;SDS011;9269;50.838;12.094;2023-08-17T01:07:33;9.70;;;8.83;;
18286;SDS011;9269;50.838;12.094;2023-08-17T01:10:04;10.20;;;9.30;;
18286;SDS011;9269;50.838;12.094;2023-08-17T01:12:36;9.67;;;8.77;;
18286;SDS011;9269;50.838;12.094;2023-08-17T01:19:04;9.20;;;8.40;;
18286;SDS011;9269;50.838;12.094;2023-08-17T01:21:37;10.83;;;9.83;;
18286;SDS011;9269;50.838;12.094;2023-08-17T01:24:11;10.43;;;9.53;;
18286;SDS011;9269;50.838;12.094;2023-08-17T01:26:40;10.73;;;9.50;;
18286;SDS011;9269;50.838;12.094;2023-08-17T01:29:09;12.83;;;11.10;;
18286;SDS011;9269;50.838;12.094;2023-08-17T01:31:40;12.63;;;11.40;;
18286;SDS011;9269;50.838;12.094;2023-08-17T01:34:16;12.57;;;10.17;;
18286;SDS011;9269;50.838;12.094;2023-08-17T01:36:52;13.50;;;9.83;;
18286;SDS011;9269;50.838;12.094;2023-08-17T01:39:26;10.07;;;9.07;;
18286;SDS011;9269;50.838;12.094;2023-08-17T01:41:59;10.53;;;9.53;;
18286;SDS011;9269;50.838;12.094;2023-08-17T01:44:30;10.13;;;9.23;;
18286;SDS011;9269;50.838;12.094;2023-08-17T01:46:58;9.93;;;8.93;;
18286;SDS011;9269;50.838;12.094;2023-08-17T01:49:27;10.33;;;9.37;;
18286;SDS011;9269;50.838;12.094;2023-08-17T01:51:56;11.40;;;10.43;;
18286;SDS011;9269;50.838;12.094;2023-08-17T01:54:25;10.33;;;9.50;;
18286;SDS011;9269;50.838;12.094;2023-08-17T01:56:54;9.90;;;9.00;;
18286;SDS011;9269;50.838;12.094;2023-08-17T01:59:22;10.40;;;9.37;;
18286;SDS011;9269;50.838;12.094;2023-08-17T02:01:51;10.87;;;9.97;;
18286;SDS011;9269;50.838;12.094;2023-08-17T02:04:20;10.30;;;9.40;;
18286;SDS011;9269;50.838;12.094;2023-08-17T02:06:49;13.27;;;12.03;;
18286;SDS011;9269;50.838;12.094;2023-08-17T02:09:17;11.87;;;10.67;;
18286;SDS011;9269;50.838;12.094;2023-08-17T02:11:47;11.47;;;10.57;;
18286;SDS011;9269;50.838;12.094;2023-08-17T02:14:15;10.90;;;9.90;;
18286;SDS011;9269;50.838;12.094;2023-08-17T02:16:44;10.67;;;9.67;;
18286;SDS011;9269;50.838;12.094;2023-08-17T02:19:13;9.53;;;8.60;;
18286;SDS011;9269;50.838;12.094;2023-08-17T02:21:42;7.50;;;6.83;;
18286;SDS011;9269;50.838;12.094;2023-08-17T02:24:11;5.50;;;5.10;;
18286;SDS011;9269;50.838;12.094;2023-08-17T02:26:40;5.63;;;5.13;;
18286;SDS011;9269;50.838;12.094;2023-08-17T02:29:10;4.80;;;4.17;;
18286;SDS011;9269;50.838;12.094;2023-08-17T02:31:38;4.37;;;4.03;;
18286;SDS011;9269;50.838;12.094;2023-08-17T02:34:07;4.50;;;3.60;;
18286;SDS011;9269;50.838;12.094;2023-08-17T02:36:36;3.30;;;3.10;;
18286;SDS011;9269;50.838;12.094;2023-08-17T02:39:05;3.07;;;2.77;;
18286;SDS011;9269;50.838;12.094;2023-08-17T02:41:33;2.80;;;2.60;;
18286;SDS011;9269;50.838;12.094;2023-08-17T02:44:02;2.90;;;2.17;;
18286;SDS011;9269;50.838;12.094;2023-08-17T02:46:32;2.13;;;2.00;;
18286;SDS011;9269;50.838;12.094;2023-08-17T02:49:01;2.07;;;1.80;;
18286;SDS011;9269;50.838;12.094;2023-08-17T02:51:30;2.03;;;1.83;;
18286;SDS011;9269;50.838;12.094;2023-08-17T02:53:59;4.00;;;2.07;;
18286;SDS011;9269;50.838;12.094;2023-08-17T02:56:28;1.90;;;1.80;;
18286;SDS011;9269;50.838;12.094;2023-08-17T02:58:57;2.23;;;2.00;;
18286;SDS011;9269;50.838;12.094;2023-08-17T03:01:25;2.10;;;1.70;;
18286;SDS011;9269;50.838;12.094;2023-08-17T03:03:55;1.50;;;1.40;;
18286;SDS011;9269;50.838;12.094;2023-08-17T03:06:24;1.97;;;1.37;;
18286;SDS011;9269;50.838;12.094;2023-08-17T03:08:52;2.23;;;1.80;;
18286;SDS011;9269;50.838;12.094;2023-08-17T03:11:21;2.07;;;1.90;;
18286;SDS011;9269;50.838;12.094;2023-08-17T03:13:50;3.43;;;1.83;;
18286;SDS011;9269;50.838;12.094;2023-08-17T03:16:21;2.57;;;1.60;;
18286;SDS011;9269;50.838;12.094;2023-08-17T03:18:49;2.17;;;1.90;;
18286;SDS011;9269;50.838;12.094;2023-08-17T03:21:19;2.33;;;1.50;;
18286;SDS011;9269;50.838;12.094;2023-08-17T03:23:48;1.73;;;1.63;;
18286;SDS011;9269;50.838;12.094;2023-08-17T03:26:17;1.80;;;1.70;;
18286;SDS011;9269;50.838;12.094;2023-08-17T03:28:46;1.70;;;1.60;;
18286;SDS011;9269;50.838;12.094;2023-08-17T03:31:15;1.67;;;1.57;;
18286;SDS011;9269;50.838;12.094;2023-08-17T03:33:43;2.43;;;1.80;;
18286;SDS011;9269;50.838;12.094;2023-08-17T03:36:12;1.90;;;1.80;;
18286;SDS011;9269;50.838;12.094;2023-08-17T03:38:42;2.20;;;1.97;;
18286;SDS011;9269;50.838;12.094;2023-08-17T03:41:10;1.83;;;1.73;;
18286;SDS011;9269;50.838;12.094;2023-08-17T03:43:39;1.93;;;1.60;;
18286;SDS011;9269;50.838;12.094;2023-08-17T03:46:08;2.93;;;1.70;;
18286;SDS011;9269;50.838;12.094;2023-08-17T03:48:36;2.53;;;1.50;;
18286;SDS011;9269;50.838;12.094;2023-08-17T03:51:05;1.70;;;1.60;;
18286;SDS011;9269;50.838;12.094;2023-08-17T03:53:33;2.77;;;2.00;;
18286;SDS011;9269;50.838;12.094;2023-08-17T03:56:03;2.00;;;1.80;;
18286;SDS011;9269;50.838;12.094;2023-08-17T03:58:32;2.67;;;1.70;;
18286;SDS011;9269;50.838;12.094;2023-08-17T04:01:02;2.20;;;1.60;;
18286;SDS011;9269;50.838;12.094;2023-08-17T04:03:34;2.60;;;1.47;;
18286;SDS011;9269;50.838;12.094;2023-08-17T04:06:04;1.80;;;1.70;;
18286;SDS011;9269;50.838;12.094;2023-08-17T04:08:33;1.70;;;1.60;;
18286;SDS011;9269;50.838;12.094;2023-08-17T04:11:03;1.80;;;1.70;;
18286;SDS011;9269;50.838;12.094;2023-08-17T04:13:32;2.10;;;1.90;;
18286;SDS011;9269;50.838;12.094;2023-08-17T04:16:01;1.30;;;1.20;;
18286;SDS011;9269;50.838;12.094;2023-08-17T04:18:30;1.70;;;1.60;;
18286;SDS011;9269;50.838;12.094;2023-08-17T04:20:58;2.10;;;1.53;;
18286;SDS011;9269;50.838;12.094;2023-08-17T04:23:28;2.27;;;1.60;;
18286;SDS011;9269;50.838;12.094;2023-08-17T04:25:57;1.57;;;1.47;;
18286;SDS011;9269;50.838;12.094;2023-08-17T04:28:27;1.80;;;1.70;;
18286;SDS011;9269;50.838;12.094;2023-08-17T04:30:56;1.80;;;1.33;;
18286;SDS011;9269;50.838;12.094;2023-08-17T04:33:25;1.53;;;1.40;;
18286;SDS011;9269;50.838;12.094;2023-08-17T04:35:54;1.67;;;1.57;;
18286;SDS011;9269;50.838;12.094;2023-08-17T04:38:23;2.07;;;1.23;;
18286;SDS011;9269;50.838;12.094;2023-08-17T04:40:52;3.17;;;1.67;;
18286;SDS011;9269;50.838;12.094;2023-08-17T04:43:21;1.67;;;1.33;;
18286;SDS011;9269;50.838;12.094;2023-08-17T04:45:51;1.63;;;1.43;;
18286;SDS011;9269;50.838;12.094;2023-08-17T04:48:21;1.63;;;1.53;;
18286;SDS011;9269;50.838;12.094;2023-08-17T04:50:51;2.77;;;1.80;;
18286;SDS011;9269;50.838;12.094;2023-08-17T04:53:20;1.60;;;1.50;;
18286;SDS011;9269;50.838;12.094;2023-08-17T04:55:48;1.87;;;1.23;;
18286;SDS011;9269;50.838;12.094;2023-08-17T04:58:17;2.10;;;1.60;;
18286;SDS011;9269;50.838;12.094;2023-08-17T05:00:47;2.07;;;1.70;;
18286;SDS011;9269;50.838;12.094;2023-08-17T05:03:20;1.73;;;1.40;;
18286;SDS011;9269;50.838;12.094;2023-08-17T05:05:59;2.53;;;1.70;;
18286;SDS011;9269;50.838;12.094;2023-08-17T05:08:28;2.57;;;1.47;;
18286;SDS011;9269;50.838;12.094;2023-08-17T05:10:57;1.50;;;1.40;;
18286;SDS011;9269;50.838;12.094;2023-08-17T05:13:25;2.00;;;1.57;;
18286;SDS011;9269;50.838;12.094;2023-08-17T05:15:56;1.90;;;1.40;;
18286;SDS011;9269;50.838;12.094;2023-08-17T05:18:24;1.50;;;1.40;;
18286;SDS011;9269;50.838;12.094;2023-08-17T05:20:53;2.10;;;1.90;;
18286;SDS011;9269;50.838;12.094;2023-08-17T05:23:22;1.50;;;1.40;;
18286;SDS011;9269;50.838;12.094;2023-08-17T05:25:51;2.23;;;2.00;;
18286;SDS011;9269;50.838;12.094;2023-08-17T05:28:20;1.67;;;1.57;;
18286;SDS011;9269;50.838;12.094;2023-08-17T05:30:50;1.90;;;1.60;;
18286;SDS011;9269;50.838;12.094;2023-08-17T05:33:21;2.37;;;1.70;;
18286;SDS011;9269;50.838;12.094;2023-08-17T05:35:53;2.30;;;2.10;;
18286;SDS011;9269;50.838;12.094;2023-08-17T05:38:21;1.67;;;1.57;;
18286;SDS011;9269;50.838;12.094;2023-08-17T05:40:54;1.90;;;1.80;;
18286;SDS011;9269;50.838;12.094;2023-08-17T05:43:23;1.80;;;1.70;;
18286;SDS011;9269;50.838;12.094;2023-08-17T05:45:52;1.80;;;1.70;;
18286;SDS011;9269;50.838;12.094;2023-08-17T05:48:22;1.70;;;1.60;;
18286;SDS011;9269;50.838;12.094;2023-08-17T05:50:50;1.80;;;1.70;;
18286;SDS011;9269;50.838;12.094;2023-08-17T05:53:19;1.63;;;1.53;;
18286;SDS011;9269;50.838;12.094;2023-08-17T05:55:47;1.80;;;1.70;;
18286;SDS011;9269;50.838;12.094;2023-08-17T05:58:16;1.83;;;1.73;;
18286;SDS011;9269;50.838;12.094;2023-08-17T06:00:44;2.83;;;1.77;;
18286;SDS011;9269;50.838;12.094;2023-08-17T06:03:16;1.63;;;1.50;;
18286;SDS011;9269;50.838;12.094;2023-08-17T06:05:46;2.10;;;1.90;;
18286;SDS011;9269;50.838;12.094;2023-08-17T06:08:15;1.70;;;1.50;;
18286;SDS011;9269;50.838;12.094;2023-08-17T06:10:44;1.60;;;1.50;;
18286;SDS011;9269;50.838;12.094;2023-08-17T06:13:12;1.53;;;1.43;;
18286;SDS011;9269;50.838;12.094;2023-08-17T06:15:41;1.63;;;1.17;;
18286;SDS011;9269;50.838;12.094;2023-08-17T06:18:10;1.47;;;1.37;;
18286;SDS011;9269;50.838;12.094;2023-08-17T06:20:39;1.60;;;1.50;;
18286;SDS011;9269;50.838;12.094;2023-08-17T06:23:09;2.07;;;1.87;;
18286;SDS011;9269;50.838;12.094;2023-08-17T06:25:37;1.70;;;1.60;;
18286;SDS011;9269;50.838;12.094;2023-08-17T06:28:06;1.70;;;1.60;;
18286;SDS011;9269;50.838;12.094;2023-08-17T06:30:35;1.53;;;1.43;;
18286;SDS011;9269;50.838;12.094;2023-08-17T06:33:04;2.10;;;1.90;;
18286;SDS011;9269;50.838;12.094;2023-08-17T06:35:32;1.70;;;1.60;;
18286;SDS011;9269;50.838;12.094;2023-08-17T06:38:01;2.53;;;1.90;;
18286;SDS011;9269;50.838;12.094;2023-08-17T06:40:31;2.10;;;2.00;;
18286;SDS011;9269;50.838;12.094;2023-08-17T06:42:59;2.50;;;2.30;;
18286;SDS011;9269;50.838;12.094;2023-08-17T06:45:28;2.07;;;1.93;;
18286;SDS011;9269;50.838;12.094;2023-08-17T06:47:56;3.90;;;3.70;;
18286;SDS011;9269;50.838;12.094;2023-08-17T06:50:25;3.37;;;3.17;;
18286;SDS011;9269;50.838;12.094;2023-08-17T06:52:57;3.63;;;3.03;;
18286;SDS011;9269;50.838;12.094;2023-08-17T06:55:25;3.47;;;3.13;;
18286;SDS011;9269;50.838;12.094;2023-08-17T06:57:56;3.90;;;3.70;;
18286;SDS011;9269;50.838;12.094;2023-08-17T07:00:25;5.00;;;4.50;;
18286;SDS011;9269;50.838;12.094;2023-08-17T07:02:54;4.67;;;4.30;;
18286;SDS011;9269;50.838;12.094;2023-08-17T07:05:27;5.07;;;4.67;;
18286;SDS011;9269;50.838;12.094;2023-08-17T07:07:55;4.20;;;3.90;;
18286;SDS011;9269;50.838;12.094;2023-08-17T07:10:24;4.87;;;4.57;;
18286;SDS011;9269;50.838;12.094;2023-08-17T07:12:53;4.40;;;4.07;;
18286;SDS011;9269;50.838;12.094;2023-08-17T07:15:22;4.20;;;3.90;;
18286;SDS011;9269;50.838;12.094;2023-08-17T07:17:51;5.03;;;4.63;;
18286;SDS011;9269;50.838;12.094;2023-08-17T07:20:20;4.10;;;3.80;;
18286;SDS011;9269;50.838;12.094;2023-08-17T07:22:48;4.30;;;3.90;;
18286;SDS011;9269;50.838;12.094;2023-08-17T07:25:17;4.70;;;4.30;;
18286;SDS011;9269;50.838;12.094;2023-08-17T07:27:46;4.37;;;4.03;;
18286;SDS011;9269;50.838;12.094;2023-08-17T07:30:14;4.20;;;4.00;;
18286;SDS011;9269;50.838;12.094;2023-08-17T07:32:44;3.97;;;3.67;;
18286;SDS011;9269;50.838;12.094;2023-08-17T07:35:13;5.53;;;5.03;;
18286;SDS011;9269;50.838;12.094;2023-08-17T07:37:42;4.90;;;4.60;;
18286;SDS011;9269;50.838;12.094;2023-08-17T07:40:25;5.87;;;5.37;;
18286;SDS011;9269;50.838;12.094;2023-08-17T07:42:54;5.87;;;5.47;;
18286;SDS011;9269;50.838;12.094;2023-08-17T07:45:23;6.57;;;6.13;;
18286;SDS011;9269;50.838;12.094;2023-08-17T07:47:53;5.63;;;5.23;;
18286;SDS011;9269;50.838;12.094;2023-08-17T07:50:21;7.10;;;6.60;;
18286;SDS011;9269;50.838;12.094;2023-08-17T07:52:50;7.67;;;7.07;;
18286;SDS011;9269;50.838;12.094;2023-08-17T07:55:19;8.43;;;7.83;;
18286;SDS011;9269;50.838;12.094;2023-08-17T07:57:48;8.73;;;8.03;;
18286;SDS011;9269;50.838;12.094;2023-08-17T08:00:17;8.83;;;8.07;;
18286;SDS011;9269;50.838;12.094;2023-08-17T08:02:46;8.77;;;8.07;;
18286;SDS011;9269;50.838;12.094;2023-08-17T08:05:16;8.43;;;7.83;;
18286;SDS011;9269;50.838;12.094;2023-08-17T08:08:05;9.87;;;9.07;;
18286;SDS011;9269;50.838;12.094;2023-08-17T08:10:36;8.60;;;7.90;;
18286;SDS011;9269;50.838;12.094;2023-08-17T08:13:05;8.73;;;8.07;;
18286;SDS011;9269;50.838;12.094;2023-08-17T08:15:35;8.57;;;7.97;;
18286;SDS011;9269;50.838;12.094;2023-08-17T08:18:05;8.53;;;7.83;;
18286;SDS011;9269;50.838;12.094;2023-08-17T08:20:35;8.33;;;7.63;;
18286;SDS011;9269;50.838;12.094;2023-08-17T08:23:07;7.90;;;7.30;;
18286;SDS011;9269;50.838;12.094;2023-08-17T08:25:35;8.97;;;8.37;;
18286;SDS011;9269;50.838;12.094;2023-08-17T08:28:04;9.13;;;8.43;;
18286;SDS011;9269;50.838;12.094;2023-08-17T08:30:33;8.77;;;7.87;;
18286;SDS011;9269;50.838;12.094;2023-08-17T08:33:02;8.27;;;7.67;;
18286;SDS011;9269;50.838;12.094;2023-08-17T08:35:31;8.17;;;7.47;;
18286;SDS011;9269;50.838;12.094;2023-08-17T08:38:01;8.43;;;7.73;;
18286;SDS011;9269;50.838;12.094;2023-08-17T08:40:30;8.47;;;7.80;;
18286;SDS011;9269;50.838;12.094;2023-08-17T08:42:59;8.57;;;7.93;;
18286;SDS011;9269;50.838;12.094;2023-08-17T08:45:27;8.00;;;7.40;;
18286;SDS011;9269;50.838;12.094;2023-08-17T08:47:58;7.80;;;7.20;;
18286;SDS011;9269;50.838;12.094;2023-08-17T08:50:31;8.00;;;7.40;;
18286;SDS011;9269;50.838;12.094;2023-08-17T08:53:07;8.03;;;7.43;;
18286;SDS011;9269;50.838;12.094;2023-08-17T08:55:40;8.43;;;7.83;;
18286;SDS011;9269;50.838;12.094;2023-08-17T08:58:13;8.90;;;8.10;;
18286;SDS011;9269;50.838;12.094;2023-08-17T09:00:45;7.87;;;7.27;;
18286;SDS011;9269;50.838;12.094;2023-08-17T09:03:15;7.73;;;7.23;;
18286;SDS011;9269;50.838;12.094;2023-08-17T09:05:50;8.33;;;7.53;;
18286;SDS011;9269;50.838;12.094;2023-08-17T09:08:22;8.80;;;8.10;;
18286;SDS011;9269;50.838;12.094;2023-08-17T09:10:52;8.87;;;8.17;;
18286;SDS011;9269;50.838;12.094;2023-08-17T09:13:21;8.40;;;7.73;;
18286;SDS011;9269;50.838;12.094;2023-08-17T09:15:50;8.43;;;7.83;;
18286;SDS011;9269;50.838;12.094;2023-08-17T09:18:19;8.57;;;7.83;;
18286;SDS011;9269;50.838;12.094;2023-08-17T09:20:48;8.03;;;7.43;;
18286;SDS011;9269;50.838;12.094;2023-08-17T09:23:21;8.90;;;8.30;;
18286;SDS011;9269;50.838;12.094;2023-08-17T09:25:50;8.63;;;7.93;;
18286;SDS011;9269;50.838;12.094;2023-08-17T09:28:24;9.17;;;8.47;;
18286;SDS011;9269;50.838;12.094;2023-08-17T09:30:53;8.20;;;7.50;;
18286;SDS011;9269;50.838;12.094;2023-08-17T09:33:23;8.13;;;7.53;;
18286;SDS011;9269;50.838;12.094;2023-08-17T09:35:53;7.73;;;7.23;;
18286;SDS011;9269;50.838;12.094;2023-08-17T09:38:27;9.20;;;8.50;;
18286;SDS011;9269;50.838;12.094;2023-08-17T09:40:56;8.13;;;7.53;;
18286;SDS011;9269;50.838;12.094;2023-08-17T09:43:26;7.93;;;7.33;;
18286;SDS011;9269;50.838;12.094;2023-08-17T09:45:58;8.03;;;7.30;;
18286;SDS011;9269;50.838;12.094;2023-08-17T09:48:28;8.50;;;7.80;;
18286;SDS011;9269;50.838;12.094;2023-08-17T09:50:59;9.13;;;8.43;;
18286;SDS011;9269;50.838;12.094;2023-08-17T09:53:33;9.00;;;8.20;;
18286;SDS011;9269;50.838;12.094;2023-08-17T09:56:04;8.90;;;8.20;;
18286;SDS011;9269;50.838;12.094;2023-08-17T09:58:34;8.93;;;8.23;;
18286;SDS011;9269;50.838;12.094;2023-08-17T10:01:03;8.50;;;7.77;;
18286;SDS011;9269;50.838;12.094;2023-08-17T10:03:33;8.43;;;7.83;;
18286;SDS011;9269;50.838;12.094;2023-08-17T10:06:04;7.97;;;7.23;;
18286;SDS011;9269;50.838;12.094;2023-08-17T10:08:37;8.67;;;7.97;;
18286;SDS011;9269;50.838;12.094;2023-08-17T10:11:09;8.60;;;7.97;;
18286;SDS011;9269;50.838;12.094;2023-08-17T10:13:40;8.50;;;7.80;;
18286;SDS011;9269;50.838;12.094;2023-08-17T10:16:14;7.60;;;7.00;;
18286;SDS011;9269;50.838;12.094;2023-08-17T10:18:59;7.23;;;6.73;;
18286;SDS011;9269;50.838;12.094;2023-08-17T10:21:36;7.47;;;6.97;;
18286;SDS011;9269;50.838;12.094;2023-08-17T10:24:09;7.43;;;6.93;;
18286;SDS011;9269;50.838;12.094;2023-08-17T10:26:39;7.70;;;7.20;;
18286;SDS011;9269;50.838;12.094;2023-08-17T10:29:09;7.60;;;6.93;;
18286;SDS011;9269;50.838;12.094;2023-08-17T10:31:44;6.83;;;6.33;;
18286;SDS011;9269;50.838;12.094;2023-08-17T10:34:13;7.10;;;6.60;;
18286;SDS011;9269;50.838;12.094;2023-08-17T10:36:43;6.83;;;6.27;;
18286;SDS011;9269;50.838;12.094;2023-08-17T10:39:24;7.40;;;6.80;;
18286;SDS011;9269;50.838;12.094;2023-08-17T10:41:56;7.00;;;6.37;;
18286;SDS011;9269;50.838;12.094;2023-08-17T10:44:38;7.83;;;7.17;;
18286;SDS011;9269;50.838;12.094;2023-08-17T10:47:18;7.47;;;6.90;;
18286;SDS011;9269;50.838;12.094;2023-08-17T10:49:47;7.93;;;7.30;;
18286;SDS011;9269;50.838;12.094;2023-08-17T10:52:24;7.20;;;6.70;;
18286;SDS011;9269;50.838;12.094;2023-08-17T10:54:56;7.17;;;6.47;;
18286;SDS011;9269;50.838;12.094;2023-08-17T10:57:28;7.30;;;6.70;;
18286;SDS011;9269;50.838;12.094;2023-08-17T11:00:16;6.70;;;6.30;;
18286;SDS011;9269;50.838;12.094;2023-08-17T11:02:52;7.07;;;6.50;;
18286;SDS011;9269;50.838;12.094;2023-08-17T11:05:38;7.27;;;6.73;;
18286;SDS011;9269;50.838;12.094;2023-08-17T11:08:09;7.50;;;6.93;;
18286;SDS011;9269;50.838;12.094;2023-08-17T11:10:48;7.80;;;7.20;;
18286;SDS011;9269;50.838;12.094;2023-08-17T11:13:26;8.07;;;7.37;;
18286;SDS011;9269;50.838;12.094;2023-08-17T11:15:57;7.03;;;6.47;;
18286;SDS011;9269;50.838;12.094;2023-08-17T11:18:30;7.30;;;6.80;;
18286;SDS011;9269;50.838;12.094;2023-08-17T11:20:59;7.40;;;6.80;;
18286;SDS011;9269;50.838;12.094;2023-08-17T11:23:30;6.90;;;6.40;;
18286;SDS011;9269;50.838;12.094;2023-08-17T11:26:02;7.03;;;6.50;;
18286;SDS011;9269;50.838;12.094;2023-08-17T11:28:32;8.07;;;7.43;;
18286;SDS011;9269;50.838;12.094;2023-08-17T11:31:09;7.70;;;7.00;;
18286;SDS011;9269;50.838;12.094;2023-08-17T11:33:38;7.77;;;7.23;;
18286;SDS011;9269;50.838;12.094;2023-08-17T11:36:08;6.97;;;6.37;;
18286;SDS011;9269;50.838;12.094;2023-08-17T11:38:38;6.80;;;6.40;;
18286;SDS011;9269;50.838;12.094;2023-08-17T11:41:09;7.27;;;6.77;;
18286;SDS011;9269;50.838;12.094;2023-08-17T11:43:42;7.10;;;6.60;;
18286;SDS011;9269;50.838;12.094;2023-08-17T11:46:11;7.53;;;7.00;;
18286;SDS011;9269;50.838;12.094;2023-08-17T11:48:40;7.90;;;7.30;;
18286;SDS011;9269;50.838;12.094;2023-08-17T11:51:09;8.70;;;8.00;;
18286;SDS011;9269;50.838;12.094;2023-08-17T11:53:39;7.83;;;7.23;;
18286;SDS011;9269;50.838;12.094;2023-08-17T11:56:09;7.23;;;6.53;;
18286;SDS011;9269;50.838;12.094;2023-08-17T11:58:42;8.50;;;7.83;;
18286;SDS011;9269;50.838;12.094;2023-08-17T12:01:11;8.67;;;7.97;;
18286;SDS011;9269;50.838;12.094;2023-08-17T12:03:40;8.87;;;8.17;;
18286;SDS011;9269;50.838;12.094;2023-08-17T12:06:10;7.83;;;7.23;;
18286;SDS011;9269;50.838;12.094;2023-08-17T12:08:41;7.90;;;7.40;;
18286;SDS011;9269;50.838;12.094;2023-08-17T12:11:15;8.03;;;7.53;;
18286;SDS011;9269;50.838;12.094;2023-08-17T12:13:48;7.33;;;6.83;;
18286;SDS011;9269;50.838;12.094;2023-08-17T12:16:17;7.80;;;7.30;;
18286;SDS011;9269;50.838;12.094;2023-08-17T12:18:47;7.73;;;7.13;;
18286;SDS011;9269;50.838;12.094;2023-08-17T12:21:16;7.93;;;7.37;;
18286;SDS011;9269;50.838;12.094;2023-08-17T12:23:47;7.67;;;7.17;;
18286;SDS011;9269;50.838;12.094;2023-08-17T12:26:20;8.20;;;7.60;;
18286;SDS011;9269;50.838;12.094;2023-08-17T12:28:50;8.13;;;7.47;;
18286;SDS011;9269;50.838;12.094;2023-08-17T12:31:20;8.33;;;7.47;;
18286;SDS011;9269;50.838;12.094;2023-08-17T12:33:51;8.07;;;7.47;;
18286;SDS011;9269;50.838;12.094;2023-08-17T12:36:20;8.20;;;7.50;;
18286;SDS011;9269;50.838;12.094;2023-08-17T12:38:49;8.57;;;7.90;;
18286;SDS011;9269;50.838;12.094;2023-08-17T12:41:19;8.33;;;7.63;;
18286;SDS011;9269;50.838;12.094;2023-08-17T12:43:49;8.03;;;7.43;;
18286;SDS011;9269;50.838;12.094;2023-08-17T12:46:20;8.00;;;7.50;;
18286;SDS011;9269;50.838;12.094;2023-08-17T12:48:49;8.03;;;7.53;;
18286;SDS011;9269;50.838;12.094;2023-08-17T12:51:18;8.57;;;7.97;;
18286;SDS011;9269;50.838;12.094;2023-08-17T12:53:46;8.50;;;7.90;;
18286;SDS011;9269;50.838;12.094;2023-08-17T12:56:16;8.80;;;8.20;;
18286;SDS011;9269;50.838;12.094;2023-08-17T12:58:46;9.37;;;8.67;;
18286;SDS011;9269;50.838;12.094;2023-08-17T13:01:14;9.10;;;8.30;;
18286;SDS011;9269;50.838;12.094;2023-08-17T13:03:45;9.53;;;8.83;;
18286;SDS011;9269;50.838;12.094;2023-08-17T13:06:14;9.40;;;8.70;;
18286;SDS011;9269;50.838;12.094;2023-08-17T13:08:43;9.10;;;8.50;;
18286;SDS011;9269;50.838;12.094;2023-08-17T13:11:12;9.33;;;8.63;;
18286;SDS011;9269;50.838;12.094;2023-08-17T13:13:40;9.60;;;8.83;;
18286;SDS011;9269;50.838;12.094;2023-08-17T13:16:10;9.23;;;8.63;;
18286;SDS011;9269;50.838;12.094;2023-08-17T13:18:40;10.77;;;9.87;;
18286;SDS011;9269;50.838;12.094;2023-08-17T13:21:08;9.97;;;9.27;;
18286;SDS011;9269;50.838;12.094;2023-08-17T13:23:38;9.87;;;9.03;;
18286;SDS011;9269;50.838;12.094;2023-08-17T13:26:07;10.93;;;9.97;;
18286;SDS011;9269;50.838;12.094;2023-08-17T13:28:36;10.53;;;9.73;;
18286;SDS011;9269;50.838;12.094;2023-08-17T13:31:05;11.00;;;10.10;;
18286;SDS011;9269;50.838;12.094;2023-08-17T13:33:51;11.20;;;10.20;;
18286;SDS011;9269;50.838;12.094;2023-08-17T13:36:20;11.23;;;10.33;;
18286;SDS011;9269;50.838;12.094;2023-08-17T13:38:49;10.30;;;9.50;;
18286;SDS011;9269;50.838;12.094;2023-08-17T13:41:18;10.60;;;9.80;;
18286;SDS011;9269;50.838;12.094;2023-08-17T13:43:46;10.47;;;9.67;;
18286;SDS011;9269;50.838;12.094;2023-08-17T13:46:16;11.13;;;10.33;;
18286;SDS011;9269;50.838;12.094;2023-08-17T13:48:45;10.47;;;9.67;;
18286;SDS011;9269;50.838;12.094;2023-08-17T13:51:34;11.13;;;10.33;;
18286;SDS011;9269;50.838;12.094;2023-08-17T13:54:19;10.63;;;9.73;;
18286;SDS011;9269;50.838;12.094;2023-08-17T13:56:49;10.47;;;9.57;;
18286;SDS011;9269;50.838;12.094;2023-08-17T13:59:19;11.10;;;10.30;;
18286;SDS011;9269;50.838;12.094;2023-08-17T14:01:48;11.63;;;10.63;;
18286;SDS011;9269;50.838;12.094;2023-08-17T14:04:18;12.00;;;10.90;;
18286;SDS011;9269;50.838;12.094;2023-08-17T14:06:48;12.50;;;11.40;;
18286;SDS011;9269;50.838;12.094;2023-08-17T14:09:18;12.10;;;11.00;;
18286;SDS011;9269;50.838;12.094;2023-08-17T14:11:47;10.83;;;10.03;;
18286;SDS011;9269;50.838;12.094;2023-08-17T14:14:16;11.30;;;10.50;;
18286;SDS011;9269;50.838;12.094;2023-08-17T14:16:44;12.93;;;11.90;;
18286;SDS011;9269;50.838;12.094;2023-08-17T14:19:13;12.47;;;11.50;;
18286;SDS011;9269;50.838;12.094;2023-08-17T14:21:41;11.13;;;10.33;;
18286;SDS011;9269;50.838;12.094;2023-08-17T14:24:11;11.40;;;10.50;;
18286;SDS011;9269;50.838;12.094;2023-08-17T14:26:40;11.00;;;10.10;;
18286;SDS011;9269;50.838;12.094;2023-08-17T14:29:08;10.63;;;9.83;;
18286;SDS011;9269;50.838;12.094;2023-08-17T14:31:38;10.93;;;9.97;;
18286;SDS011;9269;50.838;12.094;2023-08-17T14:34:07;9.73;;;8.83;;
18286;SDS011;9269;50.838;12.094;2023-08-17T14:36:35;9.47;;;8.77;;
18286;SDS011;9269;50.838;12.094;2023-08-17T14:39:05;9.10;;;8.43;;
18286;SDS011;9269;50.838;12.094;2023-08-17T14:41:35;8.70;;;8.00;;
18286;SDS011;9269;50.838;12.094;2023-08-17T14:44:04;8.33;;;7.63;;
18286;SDS011;9269;50.838;12.094;2023-08-17T14:46:33;8.20;;;7.40;;
18286;SDS011;9269;50.838;12.094;2023-08-17T14:49:02;9.33;;;8.40;;
18286;SDS011;9269;50.838;12.094;2023-08-17T14:51:36;9.67;;;7.93;;
18286;SDS011;9269;50.838;12.094;2023-08-17T14:54:06;8.43;;;7.37;;
18286;SDS011;9269;50.838;12.094;2023-08-17T14:56:36;7.23;;;6.53;;
18286;SDS011;9269;50.838;12.094;2023-08-17T14:59:05;6.70;;;6.10;;
18286;SDS011;9269;50.838;12.094;2023-08-17T15:01:36;6.70;;;6.00;;
18286;SDS011;9269;50.838;12.094;2023-08-17T15:04:05;6.93;;;6.23;;
18286;SDS011;9269;50.838;12.094;2023-08-17T15:06:34;7.10;;;6.30;;